Time;durP1;ratioP1;P1;durP2;ratioP2;P2;SDS_P1;SDS_P2;PMS_P1;PMS_P2;Temp;Humidity;BMP_temperature;BMP_pressure;BME280_temperature;BME280_humidity;BME280_pressure;Samples;Min_cycle;Max_cycle;Signal;HPM_P1;HPM_P2
2023/09/27 00:00:12;;;;;;;6.70;3.40;;;;;;;18.64;60.62;95217.25;5118856;28;20192;-68
2023/09/27 00:02:44;;;;;;;6.35;3.80;;;;;;;18.61;60.92;95209.66;5100815;28;20298;-68
2023/09/27 00:05:11;;;;;;;6.93;3.75;;;;;;;18.59;60.75;95212.88;5100524;28;20295;-67
2023/09/27 00:07:44;;;;;;;6.68;3.88;;;;;;;18.59;60.34;95203.69;5117749;28;20252;-67
2023/09/27 00:10:12;;;;;;;5.97;3.80;;;;;;;18.50;60.76;95212.47;5100922;28;20198;-67
2023/09/27 00:12:41;;;;;;;5.18;3.95;;;;;;;18.49;60.71;95210.88;5100825;28;20215;-67
2023/09/27 00:15:11;;;;;;;6.70;3.50;;;;;;;18.51;60.96;95216.84;5100590;28;20206;-67
2023/09/27 00:17:43;;;;;;;4.72;3.55;;;;;;;18.48;61.40;95209.28;5100771;28;20252;-67
2023/09/27 00:20:15;;;;;;;4.57;3.60;;;;;;;18.45;61.28;95201.72;5100303;28;20203;-67
2023/09/27 00:22:45;;;;;;;4.93;3.97;;;;;;;18.41;61.48;95203.69;5100263;28;20206;-67
2023/09/27 00:25:14;;;;;;;5.28;3.40;;;;;;;18.40;61.09;95200.09;5100392;28;20590;-67
2023/09/27 00:27:42;;;;;;;5.13;3.85;;;;;;;18.36;61.16;95201.31;5100751;28;20196;-67
2023/09/27 00:30:14;;;;;;;6.60;3.75;;;;;;;18.32;61.25;95201.31;5100234;28;20208;-67
2023/09/27 00:32:44;;;;;;;7.50;3.60;;;;;;;18.32;61.16;95203.31;5096468;28;20232;-67
2023/09/27 00:35:14;;;;;;;5.65;3.60;;;;;;;18.29;61.67;95194.53;5096880;28;20208;-67
2023/09/27 00:37:44;;;;;;;6.13;3.67;;;;;;;18.29;61.50;95196.53;5097204;28;20189;-67
2023/09/27 00:40:15;;;;;;;6.20;3.83;;;;;;;18.27;61.55;95196.94;5096941;28;20216;-68
2023/09/27 00:42:43;;;;;;;4.90;3.47;;;;;;;18.26;61.31;95197.31;5096019;28;20200;-68
2023/09/27 00:45:11;;;;;;;5.38;4.00;;;;;;;18.29;61.38;95193.75;5096418;28;20189;-68
2023/09/27 00:47:39;;;;;;;5.63;3.47;;;;;;;18.29;61.23;95190.94;5097140;28;20219;-68
2023/09/27 00:50:09;;;;;;;4.85;3.67;;;;;;;18.31;61.15;95199.72;5113544;28;20200;-68
2023/09/27 00:52:39;;;;;;;5.55;3.88;;;;;;;18.26;61.23;95192.56;5096246;28;20220;-68
2023/09/27 00:55:09;;;;;;;6.65;3.97;;;;;;;18.23;61.30;95190.56;5096169;28;20593;-67
2023/09/27 00:57:36;;;;;;;7.72;3.88;;;;;;;18.23;61.56;95198.16;5096174;28;20200;-66
2023/09/27 01:00:10;;;;;;;7.30;4.47;;;;;;;18.22;61.34;95200.13;5096675;28;20215;-66
2023/09/27 01:02:40;;;;;;;5.55;3.75;;;;;;;18.20;61.38;95196.94;5096637;28;20201;-68
2023/09/27 01:05:12;;;;;;;6.80;3.95;;;;;;;18.20;61.57;95196.16;5095925;28;20196;-68
2023/09/27 01:07:40;;;;;;;6.47;3.80;;;;;;;18.13;61.50;95193.34;5096291;28;20196;-68
2023/09/27 01:10:10;;;;;;;4.50;3.63;;;;;;;18.07;61.93;95192.16;5096944;28;20192;-68
2023/09/27 01:12:38;;;;;;;4.38;3.35;;;;;;;18.08;62.21;95199.31;5096992;28;20205;-68
2023/09/27 01:15:06;;;;;;;6.90;3.75;;;;;;;18.10;62.01;95199.72;5096959;28;20203;-69
2023/09/27 01:17:33;;;;;;;8.45;4.07;;;;;;;18.07;61.93;95194.94;5096828;28;20279;-69
2023/09/27 01:20:02;;;;;;;7.30;4.03;;;;;;;18.04;62.11;95196.53;5095912;28;20196;-69
2023/09/27 01:22:30;;;;;;;6.82;3.85;;;;;;;18.03;62.36;95198.53;5097006;28;20193;-69
2023/09/27 01:25:00;;;;;;;3.92;3.45;;;;;;;17.99;62.39;95194.16;5096047;28;20287;-69
2023/09/27 01:27:29;;;;;;;6.00;3.92;;;;;;;17.99;62.64;95196.94;5096487;28;20275;-69
2023/09/27 01:29:56;;;;;;;5.30;3.92;;;;;;;17.97;62.51;95194.56;5096009;28;20226;-69
2023/09/27 01:32:25;;;;;;;5.88;3.63;;;;;;;17.94;62.90;95198.13;5108222;28;20322;-69
2023/09/27 01:34:55;;;;;;;4.78;3.47;;;;;;;17.94;63.15;95192.56;5099273;28;20206;-69
2023/09/27 01:37:23;;;;;;;5.65;3.90;;;;;;;17.93;63.00;95192.94;5115737;28;20295;-69
2023/09/27 01:39:54;;;;;;;8.63;4.10;;;;;;;17.88;63.39;95201.72;5098863;28;20202;-69
2023/09/27 01:42:24;;;;;;;5.93;3.55;;;;;;;17.89;63.71;95203.28;5099536;28;20257;-69
2023/09/27 01:44:52;;;;;;;4.35;3.80;;;;;;;17.91;63.14;95196.13;5098675;28;20622;-69
2023/09/27 01:47:21;;;;;;;6.55;4.13;;;;;;;17.94;63.25;95205.72;5098599;28;20295;-67
2023/09/27 01:49:49;;;;;;;5.78;3.60;;;;;;;17.89;63.22;95198.50;5099047;28;20206;-67
2023/09/27 01:52:17;;;;;;;6.05;3.95;;;;;;;17.90;63.28;95197.34;5098792;28;20219;-67
2023/09/27 01:54:45;;;;;;;5.53;4.03;;;;;;;17.89;63.33;95192.94;5116580;28;20198;-67
2023/09/27 01:57:12;;;;;;;6.78;3.72;;;;;;;17.86;63.65;95198.50;5098697;28;20206;-67
2023/09/27 01:59:44;;;;;;;7.45;4.43;;;;;;;17.89;63.50;95198.50;5099089;28;20290;-67
2023/09/27 02:02:12;;;;;;;4.50;4.10;;;;;;;17.89;63.53;95195.72;5098552;28;20263;-67
2023/09/27 02:04:43;;;;;;;5.38;3.97;;;;;;;17.89;63.60;95190.13;5098397;28;20199;-68
2023/09/27 02:07:11;;;;;;;5.85;4.05;;;;;;;17.87;63.75;95200.13;5116318;28;20188;-67
2023/09/27 02:09:38;;;;;;;6.43;3.72;;;;;;;17.86;63.82;95190.13;5098514;28;20199;-68
2023/09/27 02:12:07;;;;;;;5.97;4.43;;;;;;;17.85;63.56;95203.28;5116090;28;20212;-68
2023/09/27 02:14:35;;;;;;;4.32;3.78;;;;;;;17.85;63.84;95199.72;5116205;28;20286;-68
2023/09/27 02:17:07;;;;;;;4.30;3.90;;;;;;;17.82;64.11;95194.91;5116201;28;20183;-68
2023/09/27 02:19:35;;;;;;;8.77;4.20;;;;;;;17.79;64.04;95197.31;5098192;28;20199;-67
2023/09/27 02:22:04;;;;;;;6.15;4.15;;;;;;;17.70;64.22;95196.88;5116083;28;20191;-68
2023/09/27 02:24:32;;;;;;;5.57;4.20;;;;;;;17.66;64.47;95196.06;5116143;28;20278;-68
2023/09/27 02:27:00;;;;;;;7.80;4.18;;;;;;;17.65;64.35;95196.47;5115672;28;20211;-68
2023/09/27 02:29:27;;;;;;;5.50;4.00;;;;;;;17.69;64.28;95202.84;5098061;28;20187;-68
2023/09/27 02:31:55;;;;;;;8.27;4.38;;;;;;;17.68;64.37;95199.25;5115702;28;20245;-68
2023/09/27 02:34:25;;;;;;;6.45;3.88;;;;;;;17.65;64.51;95200.06;5115899;28;20614;-68
2023/09/27 02:36:53;;;;;;;9.77;4.20;;;;;;;17.63;64.29;95199.63;5098150;28;20263;-69
2023/09/27 02:39:22;;;;;;;7.50;4.53;;;;;;;17.63;64.59;95198.84;5115593;28;20198;-69
2023/09/27 02:41:48;;;;;;;5.82;4.18;;;;;;;17.62;64.64;95206.41;5115791;28;20219;-69
2023/09/27 02:44:16;;;;;;;4.82;3.75;;;;;;;17.60;64.56;95202.41;5115890;28;20623;-69
2023/09/27 02:46:45;;;;;;;6.68;3.95;;;;;;;17.54;64.21;95205.59;5098345;28;20202;-68
2023/09/27 02:49:12;;;;;;;6.35;4.28;;;;;;;17.50;64.36;95210.38;5097901;28;20199;-67
2023/09/27 02:51:40;;;;;;;5.90;4.22;;;;;;;17.50;64.10;95217.91;5097788;28;20203;-67
2023/09/27 02:54:07;;;;;;;6.65;4.53;;;;;;;17.53;64.37;95219.94;5115435;28;20231;-67
2023/09/27 02:56:36;;;;;;;6.10;4.00;;;;;;;17.50;64.03;95213.16;5097811;28;20195;-67
2023/09/27 02:59:02;;;;;;;7.53;3.92;;;;;;;17.48;63.99;95218.31;5114819;28;20229;-67
2023/09/27 03:01:29;;;;;;;6.95;3.60;;;;;;;17.46;63.75;95215.13;5115487;28;20205;-68
2023/09/27 03:03:57;;;;;;;6.00;3.60;;;;;;;17.46;64.15;95223.50;5115852;28;20200;-66
2023/09/27 03:06:25;;;;;;;9.45;4.28;;;;;;;17.48;64.10;95220.31;5099250;28;20199;-66
2023/09/27 03:08:59;;;;;;;6.47;4.20;;;;;;;17.50;63.91;95226.28;5119849;28;20184;-67
2023/09/27 03:11:27;;;;;;;7.53;4.40;;;;;;;17.49;63.68;95224.69;5101977;28;20199;-67
2023/09/27 03:13:54;;;;;;;5.88;4.05;;;;;;;17.45;63.85;95216.31;5102430;28;20306;-67
2023/09/27 03:16:22;;;;;;;6.95;4.25;;;;;;;17.45;63.79;95221.91;5119697;28;20596;-66
2023/09/27 03:18:50;;;;;;;4.95;3.92;;;;;;;17.46;63.99;95223.50;5102243;28;20191;-66
2023/09/27 03:21:18;;;;;;;6.93;4.30;;;;;;;17.41;63.57;95218.31;5119248;28;20186;-66
2023/09/27 03:23:46;;;;;;;4.50;4.07;;;;;;;17.38;63.71;95221.09;5119224;28;20529;-70
2023/09/27 03:26:15;;;;;;;7.57;4.20;;;;;;;17.36;63.42;95224.28;5101792;28;20195;-66
2023/09/27 03:28:45;;;;;;;6.07;4.07;;;;;;;17.36;63.26;95221.50;5119193;28;20269;-66
2023/09/27 03:31:12;;;;;;;6.72;4.20;;;;;;;17.33;62.81;95213.91;5119629;28;20230;-66
2023/09/27 03:33:39;;;;;;;8.68;4.25;;;;;;;17.34;62.74;95221.06;5118813;28;20215;-66
2023/09/27 03:36:07;;;;;;;5.63;4.18;;;;;;;17.36;62.42;95221.50;5119082;28;20184;-67
2023/09/27 03:38:36;;;;;;;5.28;3.63;;;;;;;17.38;62.15;95227.44;5119475;28;20176;-66
2023/09/27 03:41:08;;;;;;;6.18;4.60;;;;;;;17.38;62.10;95227.44;5101557;28;20196;-66
2023/09/27 03:43:37;;;;;;;6.28;4.65;;;;;;;17.37;62.36;95225.06;5119113;28;20622;-66
2023/09/27 03:46:06;;;;;;;5.68;3.90;;;;;;;17.37;62.47;95230.66;5118942;28;20187;-67
2023/09/27 03:48:34;;;;;;;7.03;4.20;;;;;;;17.33;62.11;95231.44;5118828;28;20202;-66
2023/09/27 03:51:03;;;;;;;7.63;3.75;;;;;;;17.32;62.58;95229.03;5101409;28;20294;-66
2023/09/27 03:53:33;;;;;;;5.18;4.20;;;;;;;17.30;62.40;95229.41;5118627;28;20214;-67
2023/09/27 03:56:02;;;;;;;5.05;4.22;;;;;;;17.27;62.57;95238.56;5100769;28;20707;-66
2023/09/27 03:58:30;;;;;;;5.65;4.25;;;;;;;17.25;62.54;95240.16;5118887;28;20195;-66
2023/09/27 04:01:00;;;;;;;6.95;4.70;;;;;;;17.24;62.48;95241.34;5118012;28;20203;-67
2023/09/27 04:03:27;;;;;;;7.18;4.80;;;;;;;17.24;62.60;95236.56;5100962;28;20302;-65
2023/09/27 04:05:57;;;;;;;5.60;4.28;;;;;;;17.25;61.98;95238.16;5101160;28;20210;-65
2023/09/27 04:08:26;;;;;;;5.80;4.63;;;;;;;17.24;62.04;95244.13;5100825;28;20210;-65
2023/09/27 04:10:54;;;;;;;6.95;4.80;;;;;;;17.23;62.03;95242.53;5118454;28;20187;-65
2023/09/27 04:13:22;;;;;;;8.73;4.50;;;;;;;17.27;61.80;95243.34;5118192;28;20730;-65
2023/09/27 04:15:50;;;;;;;8.85;4.70;;;;;;;17.25;61.86;95240.16;5118437;28;20493;-65
2023/09/27 04:18:19;;;;;;;10.93;4.63;;;;;;;17.24;61.85;95244.91;5099635;28;20217;-65
2023/09/27 04:20:50;;;;;;;6.05;4.03;;;;;;;17.26;61.23;95241.75;5101059;28;20196;-65
2023/09/27 04:23:18;;;;;;;5.65;4.40;;;;;;;17.24;61.40;95239.34;5100554;28;20611;-64
2023/09/27 04:25:45;;;;;;;5.68;4.40;;;;;;;17.21;61.61;95244.91;5100769;28;20203;-64
2023/09/27 04:28:13;;;;;;;10.45;4.88;;;;;;;17.22;61.89;95247.31;5100508;28;20203;-64
2023/09/27 04:30:43;;;;;;;5.93;4.28;;;;;;;17.23;61.38;95242.53;5118069;28;20262;-64
2023/09/27 04:33:10;;;;;;;6.65;4.53;;;;;;;17.22;61.81;95240.94;5117511;28;20274;-64
2023/09/27 04:35:40;;;;;;;7.90;4.40;;;;;;;17.20;61.78;95241.31;5117747;28;20253;-64
2023/09/27 04:38:09;;;;;;;8.27;4.88;;;;;;;17.23;61.58;95250.91;5118100;28;20222;-64
2023/09/27 04:40:36;;;;;;;6.28;5.20;;;;;;;17.23;61.50;95242.53;5099810;28;20201;-64
2023/09/27 04:43:04;;;;;;;7.57;4.40;;;;;;;17.25;61.46;95246.53;5100076;28;20524;-64
2023/09/27 04:45:31;;;;;;;7.72;5.13;;;;;;;17.23;61.73;95251.69;5116912;28;20534;-65
2023/09/27 04:48:00;;;;;;;6.32;4.47;;;;;;;17.23;61.62;95250.91;5099971;28;20203;-65
2023/09/27 04:50:28;;;;;;;10.18;4.75;;;;;;;17.26;61.24;95252.91;5118121;28;20195;-64
2023/09/27 04:52:57;;;;;;;7.05;4.28;;;;;;;17.26;61.12;95250.13;5117996;28;20214;-64
2023/09/27 04:55:25;;;;;;;7.18;4.53;;;;;;;17.24;61.05;95256.06;5099667;28;20211;-64
2023/09/27 04:57:54;;;;;;;6.78;4.22;;;;;;;17.30;61.29;95257.28;5099798;28;20188;-64
2023/09/27 05:00:22;;;;;;;9.88;4.68;;;;;;;17.32;61.25;95257.72;5099621;28;20214;-65
2023/09/27 05:02:49;;;;;;;5.25;4.43;;;;;;;17.34;61.57;95265.69;5099974;28;20251;-65
2023/09/27 05:05:16;;;;;;;9.90;5.03;;;;;;;17.35;61.52;95266.47;5099429;28;20187;-64
2023/09/27 05:07:45;;;;;;;10.20;4.47;;;;;;;17.36;61.41;95271.66;5117055;28;20241;-64
2023/09/27 05:10:15;;;;;;;7.47;4.75;;;;;;;17.39;61.21;95264.50;5116555;28;20623;-64
2023/09/27 05:12:43;;;;;;;6.30;4.88;;;;;;;17.37;61.28;95266.88;5099327;28;20212;-64
2023/09/27 05:15:10;;;;;;;6.00;4.93;;;;;;;17.40;61.27;95266.09;5116268;28;20291;-64
2023/09/27 05:17:38;;;;;;;7.45;4.78;;;;;;;17.41;61.78;95259.34;5117379;28;20214;-64
2023/09/27 05:20:10;;;;;;;9.38;5.43;;;;;;;17.43;61.57;95262.50;5099268;28;20203;-64
2023/09/27 05:22:38;;;;;;;6.45;5.00;;;;;;;17.44;61.77;95262.13;5099302;28;20203;-64
2023/09/27 05:25:07;;;;;;;7.28;5.38;;;;;;;17.46;61.64;95267.31;5099454;28;20204;-64
2023/09/27 05:27:36;;;;;;;6.70;4.70;;;;;;;17.46;61.67;95272.88;5099188;28;20263;-64
2023/09/27 05:30:07;;;;;;;6.68;5.47;;;;;;;17.43;61.95;95263.34;5099358;28;20206;-64
2023/09/27 05:32:35;;;;;;;9.80;5.57;;;;;;;17.49;61.98;95272.91;5112600;28;20301;-64
2023/09/27 05:35:07;;;;;;;8.07;5.28;;;;;;;17.50;61.80;95268.94;5095926;28;20283;-65
2023/09/27 05:37:36;;;;;;;7.30;4.93;;;;;;;17.52;61.69;95268.53;5095345;28;20231;-65
2023/09/27 05:40:07;;;;;;;8.63;4.68;;;;;;;17.56;61.42;95272.13;5095936;28;20196;-64
2023/09/27 05:42:36;;;;;;;6.82;4.93;;;;;;;17.58;61.30;95274.53;5095674;28;20192;-64
2023/09/27 05:45:05;;;;;;;9.25;5.60;;;;;;;17.58;61.54;95280.91;5095729;28;20194;-64
2023/09/27 05:47:32;;;;;;;7.57;4.85;;;;;;;17.60;61.55;95278.50;5095440;28;20246;-64
2023/09/27 05:50:00;;;;;;;6.35;4.50;;;;;;;17.58;61.46;95275.34;5095306;28;20709;-64
2023/09/27 05:52:28;;;;;;;7.47;4.75;;;;;;;17.60;61.56;95270.16;5095458;28;20283;-64
2023/09/27 05:54:56;;;;;;;7.35;4.72;;;;;;;17.63;61.31;95283.31;5095599;28;20288;-64
2023/09/27 05:57:24;;;;;;;5.10;4.60;;;;;;;17.68;61.08;95273.75;5095145;28;20287;-64
2023/09/27 05:59:54;;;;;;;8.23;5.18;;;;;;;17.69;61.62;95273.38;5095934;28;20288;-64
2023/09/27 06:02:30;;;;;;;5.88;5.10;;;;;;;17.73;61.41;95278.97;5111956;28;20224;-64
2023/09/27 06:04:59;;;;;;;6.22;4.68;;;;;;;17.75;61.31;95279.34;5111964;28;20203;-64
2023/09/27 06:07:27;;;;;;;6.70;4.53;;;;;;;17.79;61.10;95274.63;5094843;28;20195;-64
2023/09/27 06:09:54;;;;;;;6.07;4.75;;;;;;;17.84;60.92;95284.59;5095115;28;20213;-64
2023/09/27 06:12:22;;;;;;;7.10;4.60;;;;;;;17.82;61.00;95287.78;5095561;28;20266;-64
2023/09/27 06:14:50;;;;;;;7.28;5.00;;;;;;;17.86;60.73;95283.00;5095615;28;20628;-65
2023/09/27 06:17:20;;;;;;;6.82;4.53;;;;;;;17.88;60.62;95283.41;5094919;28;20655;-64
2023/09/27 06:19:50;;;;;;;7.13;4.32;;;;;;;17.93;60.37;95285.81;5094963;28;20208;-64
2023/09/27 06:22:22;;;;;;;8.25;4.93;;;;;;;17.97;60.38;95286.63;5112067;28;20196;-64
2023/09/27 06:24:51;;;;;;;6.32;4.65;;;;;;;18.00;60.30;95288.63;5094758;28;20610;-64
2023/09/27 06:27:19;;;;;;;6.55;4.57;;;;;;;18.05;60.55;95287.44;5094945;28;20298;-64
2023/09/27 06:29:47;;;;;;;5.97;4.22;;;;;;;18.14;60.44;95285.06;5095062;28;20291;-64
2023/09/27 06:32:18;;;;;;;5.95;4.50;;;;;;;18.15;60.08;95283.84;5094414;28;20322;-64
2023/09/27 06:34:52;;;;;;;9.00;4.68;;;;;;;18.15;60.10;95297.00;5094582;28;20255;-64
2023/09/27 06:37:20;;;;;;;5.90;4.57;;;;;;;18.20;59.71;95299.44;5095224;28;20221;-64
2023/09/27 06:39:48;;;;;;;7.30;4.63;;;;;;;18.21;59.62;95290.66;5094778;28;20192;-64
2023/09/27 06:42:19;;;;;;;6.38;4.43;;;;;;;18.26;59.61;95290.28;5093628;28;20207;-64
2023/09/27 06:44:47;;;;;;;7.45;4.30;;;;;;;18.33;59.31;95289.47;5094408;28;20207;-64
2023/09/27 06:47:14;;;;;;;6.55;4.40;;;;;;;18.37;59.61;95290.25;5111452;28;20184;-64
2023/09/27 06:49:43;;;;;;;9.23;4.70;;;;;;;18.43;59.57;95291.47;5094250;28;20196;-64
2023/09/27 06:52:12;;;;;;;7.57;4.38;;;;;;;18.49;59.15;95292.69;5094453;28;20204;-64
2023/09/27 06:54:40;;;;;;;7.85;4.63;;;;;;;18.55;58.59;95286.69;5094445;28;20644;-64
2023/09/27 06:57:07;;;;;;;6.93;4.40;;;;;;;18.56;58.86;95289.09;5094428;28;20581;-64
2023/09/27 06:59:36;;;;;;;6.53;4.35;;;;;;;18.62;58.23;95298.63;5111074;28;20283;-64
2023/09/27 07:02:05;;;;;;;5.80;4.30;;;;;;;18.66;58.00;95296.63;5094422;28;20667;-64
2023/09/27 07:04:34;;;;;;;7.63;4.38;;;;;;;18.72;58.21;95297.09;5094345;28;20197;-64
2023/09/27 07:07:02;;;;;;;7.10;4.05;;;;;;;18.74;57.95;95297.50;5094505;28;20287;-64
2023/09/27 07:09:31;;;;;;;7.47;4.40;;;;;;;18.77;58.12;95296.66;5093969;28;20216;-64
2023/09/27 07:11:59;;;;;;;8.75;4.20;;;;;;;18.87;57.91;95306.25;5093957;28;20234;-64
2023/09/27 07:14:27;;;;;;;9.00;4.50;;;;;;;18.94;57.50;95306.25;5094270;28;20273;-64
2023/09/27 07:16:57;;;;;;;10.68;4.72;;;;;;;18.98;57.09;95301.44;5093959;28;20205;-64
2023/09/27 07:19:25;;;;;;;7.30;4.53;;;;;;;19.04;57.20;95301.84;5093884;28;20204;-64
2023/09/27 07:21:53;;;;;;;7.70;4.85;;;;;;;19.10;56.72;95305.81;5094476;28;20202;-64
2023/09/27 07:24:22;;;;;;;6.97;5.43;;;;;;;19.12;56.95;95309.81;5094383;28;20196;-64
2023/09/27 07:26:52;;;;;;;8.20;5.25;;;;;;;19.18;56.48;95307.41;5093975;28;20208;-64
2023/09/27 07:29:20;;;;;;;8.02;4.55;;;;;;;19.24;56.48;95305.78;5093817;28;20196;-64
2023/09/27 07:31:49;;;;;;;5.80;4.57;;;;;;;19.34;56.37;95302.16;5094146;28;20322;-64
2023/09/27 07:34:17;;;;;;;7.07;4.45;;;;;;;19.44;55.66;95297.75;5094056;28;20208;-64
2023/09/27 07:36:45;;;;;;;6.18;4.32;;;;;;;19.50;55.60;95298.94;5093795;28;20203;-64
2023/09/27 07:39:13;;;;;;;6.75;4.00;;;;;;;19.56;55.72;95308.47;5093802;28;20211;-64
2023/09/27 07:41:41;;;;;;;7.13;4.25;;;;;;;19.65;55.47;95294.91;5111200;28;20196;-64
2023/09/27 07:44:12;;;;;;;5.75;4.25;;;;;;;19.71;55.03;95307.25;5094894;28;20189;-64
2023/09/27 07:46:42;;;;;;;7.55;4.30;;;;;;;19.75;54.23;95303.63;5093889;28;20196;-64
2023/09/27 07:49:09;;;;;;;5.78;4.00;;;;;;;19.83;54.28;95296.81;5093759;28;20612;-64
2023/09/27 07:51:36;;;;;;;4.88;4.00;;;;;;;19.80;54.04;95300.44;5093935;28;20204;-64
2023/09/27 07:54:07;;;;;;;4.63;4.00;;;;;;;19.86;54.38;95301.59;5097499;28;20222;-64
2023/09/27 07:56:39;;;;;;;5.90;3.88;;;;;;;20.00;53.97;95295.91;5097845;28;20309;-64
2023/09/27 07:59:06;;;;;;;6.65;5.13;;;;;;;20.21;53.93;95295.00;5098305;28;20185;-64
2023/09/27 08:01:37;;;;;;;7.55;4.85;;;;;;;20.34;53.43;95293.31;5097154;28;20193;-64
2023/09/27 08:04:08;;;;;;;5.22;4.32;;;;;;;20.40;51.83;95293.66;5098090;28;20206;-64
2023/09/27 08:06:35;;;;;;;7.57;4.10;;;;;;;20.39;51.58;95297.66;5098344;28;20275;-64
2023/09/27 08:09:06;;;;;;;8.10;4.03;;;;;;;20.20;52.22;95288.59;5097330;28;20207;-65
2023/09/27 08:11:34;;;;;;;6.43;3.95;;;;;;;20.12;52.09;95294.66;5097370;28;20188;-64
2023/09/27 08:14:02;;;;;;;8.98;3.80;;;;;;;20.06;52.72;95291.47;5096970;28;20311;-64
2023/09/27 08:16:31;;;;;;;3.83;3.53;;;;;;;20.11;52.61;95293.84;5097287;28;20196;-64
2023/09/27 08:19:04;;;;;;;10.40;4.20;;;;;;;20.14;53.25;95290.22;5097310;28;20608;-64
2023/09/27 08:21:32;;;;;;;6.10;3.95;;;;;;;20.13;52.26;95285.84;5096938;28;20200;-65
2023/09/27 08:24:01;;;;;;;7.30;4.00;;;;;;;20.10;52.18;95292.25;5097353;28;20204;-65
2023/09/27 08:26:29;;;;;;;6.35;4.07;;;;;;;20.07;52.19;95293.06;5096929;28;20309;-65
2023/09/27 08:28:57;;;;;;;4.68;3.70;;;;;;;20.00;52.06;95289.50;5097295;28;20292;-64
2023/09/27 08:31:25;;;;;;;5.35;3.72;;;;;;;20.03;52.50;95285.91;5099005;28;20185;-65
2023/09/27 08:33:52;;;;;;;5.50;3.80;;;;;;;20.17;52.74;95288.63;5100161;28;20216;-65
2023/09/27 08:36:22;;;;;;;7.15;4.47;;;;;;;20.24;51.73;95287.78;5099987;28;20196;-64
2023/09/27 08:38:50;;;;;;;6.03;3.90;;;;;;;20.23;51.58;95283.41;5100031;28;20209;-64
2023/09/27 08:41:17;;;;;;;6.07;4.13;;;;;;;20.44;51.35;95295.25;5100081;28;20274;-64
2023/09/27 08:43:46;;;;;;;6.68;4.10;;;;;;;20.59;50.76;95293.16;5099782;28;20298;-64
2023/09/27 08:46:14;;;;;;;6.80;4.00;;;;;;;20.65;49.71;95296.28;5099757;28;20638;-64
2023/09/27 08:48:43;;;;;;;5.22;3.88;;;;;;;20.70;50.59;95289.44;5099812;28;20255;-64
2023/09/27 08:51:13;;;;;;;5.55;4.45;;;;;;;20.85;51.32;95285.34;5116848;28;20206;-64
2023/09/27 08:53:42;;;;;;;6.32;4.00;;;;;;;20.96;49.73;95302.06;5099741;28;20233;-64
2023/09/27 08:56:16;;;;;;;8.00;4.18;;;;;;;20.97;49.40;95290.41;5100154;28;20252;-65
2023/09/27 08:58:46;;;;;;;8.40;3.88;;;;;;;20.98;49.49;95288.41;5099966;28;20217;-64
2023/09/27 09:01:14;;;;;;;7.68;4.18;;;;;;;21.16;49.84;95284.19;5099393;28;20299;-65
2023/09/27 09:03:42;;;;;;;5.93;3.80;;;;;;;21.41;49.59;95291.59;5099481;28;20272;-64
2023/09/27 09:06:12;;;;;;;5.72;3.80;;;;;;;21.52;49.52;95285.84;5099812;28;20298;-64
2023/09/27 09:08:43;;;;;;;5.75;4.10;;;;;;;21.66;49.17;95291.31;5099524;28;20290;-64
2023/09/27 09:11:11;;;;;;;7.60;4.40;;;;;;;21.81;48.11;95289.09;5099388;28;20206;-64
2023/09/27 09:14:03;;;;;;;8.65;3.78;;;;;;;21.79;47.46;95285.94;5099943;28;20628;-64
2023/09/27 09:16:39;;;;;;;5.97;3.75;;;;;;;21.72;47.42;95278.41;5099682;28;20196;-64
2023/09/27 09:19:22;;;;;;;4.97;3.90;;;;;;;21.97;48.28;95275.28;5099116;28;20603;-64
2023/09/27 09:22:04;;;;;;;8.10;4.13;;;;;;;22.13;47.49;95282.28;5116609;28;20204;-64
2023/09/27 09:24:35;;;;;;;5.22;4.35;;;;;;;22.28;48.04;95276.03;5099162;28;20564;-64
2023/09/27 09:27:07;;;;;;;5.80;4.57;;;;;;;22.44;45.80;95278.22;5117208;28;20195;-64
2023/09/27 09:29:49;;;;;;;6.18;3.80;;;;;;;22.26;46.49;95272.06;5117175;28;20187;-64
2023/09/27 09:32:18;;;;;;;5.00;3.97;;;;;;;22.39;46.76;95269.47;5095802;28;20242;-65
2023/09/27 09:34:50;;;;;;;4.72;3.63;;;;;;;22.57;46.34;95264.38;5095745;28;20227;-65
2023/09/27 09:37:19;;;;;;;5.75;4.20;;;;;;;22.73;45.46;95264.50;5095654;28;20204;-65
2023/09/27 09:39:49;;;;;;;9.07;4.07;;;;;;;22.85;45.49;95263.09;5095396;28;20200;-65
2023/09/27 09:42:33;;;;;;;5.95;4.85;;;;;;;22.68;45.35;95258.56;5095874;28;20211;-65
2023/09/27 09:45:05;;;;;;;7.03;4.00;;;;;;;22.68;45.73;95258.56;5110164;28;20245;-65
2023/09/27 09:47:35;;;;;;;8.05;4.28;;;;;;;22.71;45.53;95252.88;5095227;28;20620;-65
2023/09/27 09:50:06;;;;;;;4.45;3.85;;;;;;;22.83;45.46;95252.25;5095374;28;20192;-65
2023/09/27 09:52:39;;;;;;;4.97;4.13;;;;;;;22.63;45.04;95256.25;5095604;28;20196;-65
2023/09/27 09:55:10;;;;;;;5.97;3.78;;;;;;;22.52;46.18;95251.59;5095018;28;20231;-65
2023/09/27 09:57:37;;;;;;;4.78;3.63;;;;;;;22.79;44.65;95251.53;5112328;28;20210;-65
2023/09/27 10:00:12;;;;;;;5.97;4.40;;;;;;;23.01;44.70;95251.19;5095579;28;20206;-70
2023/09/27 10:02:49;;;;;;;5.75;3.92;;;;;;;23.09;45.03;95254.66;5095461;28;20231;-68
2023/09/27 10:05:19;;;;;;;6.20;3.95;;;;;;;23.21;45.19;95242.78;5112684;28;20207;-68
2023/09/27 10:07:50;;;;;;;5.78;3.80;;;;;;;23.16;44.34;95237.66;5096630;28;20199;-68
2023/09/27 10:10:19;;;;;;;5.65;3.80;;;;;;;23.14;45.21;95242.94;5096599;28;20215;-70
2023/09/27 10:12:50;;;;;;;5.32;4.22;;;;;;;23.00;43.40;95241.16;5095840;28;20642;-68
2023/09/27 10:15:20;;;;;;;6.85;3.65;;;;;;;22.73;43.60;95235.56;5096294;28;20196;-68
2023/09/27 10:17:47;;;;;;;9.43;4.28;;;;;;;22.50;45.36;95228.72;5095995;28;20200;-68
2023/09/27 10:20:20;;;;;;;4.85;3.60;;;;;;;22.59;45.71;95226.19;5095500;28;20202;-68
2023/09/27 10:22:49;;;;;;;5.43;4.20;;;;;;;22.74;45.14;95235.16;5095378;28;20509;-69
2023/09/27 10:25:37;;;;;;;6.63;3.80;;;;;;;22.90;44.73;95226.03;5096142;28;20180;-67
2023/09/27 10:28:09;;;;;;;4.45;3.90;;;;;;;22.91;43.33;95230.44;5095727;28;20210;-66
2023/09/27 10:31:17;;;;;;;5.90;3.47;;;;;;;22.66;44.03;95216.03;5095356;28;20261;-66
2023/09/27 10:33:45;;;;;;;8.32;4.20;;;;;;;22.67;44.83;95217.63;5074614;28;20204;-69
2023/09/27 10:36:38;;;;;;;5.43;3.85;;;;;;;22.56;44.72;95212.19;5075228;28;20307;-69
2023/09/27 10:39:05;;;;;;;4.63;4.15;;;;;;;22.64;44.87;95210.03;5060188;28;20209;-68
2023/09/27 10:41:48;;;;;;;7.47;4.88;;;;;;;22.66;44.41;95210.41;5074825;28;20706;-67
2023/09/27 10:44:31;;;;;;;5.32;3.88;;;;;;;22.45;44.96;95214.38;5074609;28;20189;-67
2023/09/27 10:47:03;;;;;;;4.90;4.30;;;;;;;22.26;45.05;95218.69;5072437;28;20218;-69
2023/09/27 10:49:38;;;;;;;5.70;4.47;;;;;;;22.16;46.39;95217.66;5074587;28;20233;-68
2023/09/27 10:52:16;;;;;;;4.07;3.67;;;;;;;22.22;46.27;95209.53;5074833;28;20262;-68
2023/09/27 10:54:44;;;;;;;4.70;3.88;;;;;;;22.37;46.83;95213.72;5075369;28;20205;-68
2023/09/27 10:57:14;;;;;;;6.05;4.30;;;;;;;22.66;46.18;95199.16;5074028;28;20204;-68
2023/09/27 10:59:43;;;;;;;4.53;3.90;;;;;;;22.81;45.64;95206.13;5074216;28;20628;-68
2023/09/27 11:02:12;;;;;;;4.68;3.97;;;;;;;22.93;45.41;95204.75;5074429;28;20246;-67
2023/09/27 11:04:41;;;;;;;7.97;4.22;;;;;;;22.98;45.45;95204.22;5075095;28;20188;-69
2023/09/27 11:07:09;;;;;;;5.05;4.13;;;;;;;22.85;45.13;95200.44;5075308;28;20193;-70
2023/09/27 11:09:44;;;;;;;4.80;3.88;;;;;;;22.75;45.84;95183.31;5091177;28;20525;-67
2023/09/27 11:12:21;;;;;;;5.88;4.28;;;;;;;22.76;46.12;95184.91;5075294;28;20208;-66
2023/09/27 11:14:49;;;;;;;5.50;4.22;;;;;;;22.78;45.23;95181.69;5074986;28;20211;-66
2023/09/27 11:17:17;;;;;;;4.65;3.70;;;;;;;22.87;46.97;95179.09;5075240;28;20189;-67
2023/09/27 11:19:44;;;;;;;7.75;4.60;;;;;;;23.05;45.23;95184.41;5074962;28;20189;-67
2023/09/27 11:22:12;;;;;;;5.40;4.03;;;;;;;23.12;44.52;95177.84;5074829;28;20208;-66
2023/09/27 11:24:44;;;;;;;6.53;3.80;;;;;;;23.17;44.41;95178.16;5075049;28;20181;-66
2023/09/27 11:27:11;;;;;;;5.03;3.90;;;;;;;23.19;44.84;95174.91;5075925;28;20192;-66
2023/09/27 11:29:40;;;;;;;5.97;4.07;;;;;;;23.21;44.20;95176.06;5079134;28;20600;-66
2023/09/27 11:32:08;;;;;;;4.78;3.90;;;;;;;23.13;43.80;95177.44;5095003;28;20701;-67
2023/09/27 11:34:36;;;;;;;5.05;3.95;;;;;;;22.98;44.63;95174.09;5101611;28;20211;-67
2023/09/27 11:37:05;;;;;;;5.53;4.07;;;;;;;22.95;44.21;95172.16;5101512;28;20192;-68
2023/09/27 11:39:49;;;;;;;6.18;3.92;;;;;;;23.01;45.06;95167.59;5119765;28;20193;-67
2023/09/27 11:42:21;;;;;;;6.13;3.80;;;;;;;22.90;43.97;95177.44;5101817;28;20203;-67
2023/09/27 11:45:08;;;;;;;6.78;4.13;;;;;;;22.74;44.87;95178.16;5118986;28;20191;-67